createdAt,value
2016-12-04T00:00:53.556Z,0
2016-12-04T00:01:38.652Z,0
2016-12-04T00:02:53.589Z,0
2016-12-04T00:03:38.687Z,0
2016-12-04T00:04:38.690Z,0
2016-12-04T00:05:38.706Z,0
2016-12-04T00:06:38.719Z,0
2016-12-04T00:07:38.731Z,0
2016-12-04T00:08:38.744Z,0
2016-12-04T00:09:38.764Z,0
2016-12-04T00:10:38.769Z,0
2016-12-04T00:11:38.783Z,0
2016-12-04T00:12:38.805Z,0
2016-12-04T00:13:38.819Z,0
2016-12-04T00:14:38.839Z,0
2016-12-04T00:15:38.846Z,0
2016-12-04T00:16:38.861Z,0
2016-12-04T00:17:38.876Z,0
2016-12-04T00:18:38.882Z,0
2016-12-04T00:19:38.903Z,0
2016-12-04T00:20:38.938Z,0
2016-12-04T00:21:38.932Z,0
2016-12-04T00:23:38.949Z,0
2016-12-04T00:24:38.972Z,0
2016-12-04T00:25:38.986Z,0
2016-12-04T00:26:39.004Z,0
2016-12-04T00:27:39.018Z,0
2016-12-04T00:28:39.036Z,0
2016-12-04T00:29:39.068Z,0
2016-12-04T00:31:39.080Z,0
2016-12-04T00:32:39.081Z,0
2016-12-04T00:33:39.094Z,0
2016-12-04T00:34:54.034Z,0
2016-12-04T00:35:39.134Z,0
2016-12-04T00:36:39.142Z,0
2016-12-04T00:37:39.157Z,0
2016-12-04T00:38:39.163Z,0
2016-12-04T00:39:39.184Z,0
2016-12-04T00:40:39.199Z,0
2016-12-04T00:41:39.210Z,0
2016-12-04T00:43:39.243Z,0
2016-12-04T00:44:54.180Z,0
2016-12-04T00:45:39.275Z,0
2016-12-04T00:46:39.281Z,0
2016-12-04T00:47:54.217Z,0
2016-12-04T00:48:39.310Z,0
2016-12-04T00:49:39.329Z,0
2016-12-04T00:50:54.262Z,0
2016-12-04T00:51:54.271Z,0
2016-12-04T00:52:39.369Z,0
2016-12-04T00:53:39.388Z,0
2016-12-04T00:55:39.404Z,0
2016-12-04T00:56:39.420Z,0
2016-12-04T00:57:39.435Z,0
2016-12-04T00:58:39.482Z,0
2016-12-04T00:59:39.464Z,0
2016-12-04T01:00:39.479Z,0
2016-12-04T01:01:39.497Z,0
2016-12-04T01:02:39.510Z,0
2016-12-04T01:03:39.529Z,0
2016-12-04T01:04:54.460Z,0
2016-12-04T01:05:39.558Z,0
2016-12-04T01:06:54.490Z,0
2016-12-04T01:07:54.502Z,0
2016-12-04T01:08:39.597Z,0
2016-12-04T01:09:39.608Z,0
2016-12-04T01:10:39.623Z,0
2016-12-04T01:11:39.641Z,0
2016-12-04T01:12:39.649Z,0
2016-12-04T01:13:39.667Z,0
2016-12-04T01:14:39.682Z,0
2016-12-04T01:15:39.693Z,0
2016-12-04T01:16:40.013Z,0
2016-12-04T01:17:39.720Z,0
2016-12-04T01:18:39.737Z,0
2016-12-04T01:19:39.751Z,0
2016-12-04T01:20:39.763Z,0
2016-12-04T01:21:54.701Z,0
2016-12-04T01:22:54.714Z,0
2016-12-04T01:24:54.743Z,0
2016-12-04T01:25:39.834Z,0
2016-12-04T01:26:40.146Z,0
2016-12-04T01:27:39.857Z,0
2016-12-04T01:28:54.856Z,0
2016-12-04T01:29:39.917Z,0
2016-12-04T01:30:39.908Z,0
2016-12-04T01:31:54.847Z,0
2016-12-04T01:32:54.861Z,0
2016-12-04T01:33:39.950Z,0
2016-12-04T01:34:39.963Z,0
2016-12-04T01:35:40.024Z,0
2016-12-04T01:36:54.912Z,0
2016-12-04T01:37:54.923Z,0
2016-12-04T01:38:40.019Z,0
2016-12-04T01:39:40.113Z,0
2016-12-04T01:40:40.077Z,0
2016-12-04T01:41:40.063Z,0
2016-12-04T01:42:40.093Z,0
2016-12-04T01:43:40.091Z,0
2016-12-04T01:45:40.112Z,0
2016-12-04T01:46:40.133Z,0
2016-12-04T01:47:40.145Z,0
2016-12-04T01:48:40.159Z,0
2016-12-04T01:49:40.178Z,0
2016-12-04T01:50:55.126Z,0
2016-12-04T01:51:40.196Z,0
2016-12-04T01:52:55.141Z,0
2016-12-04T01:53:55.152Z,0
2016-12-04T01:54:40.248Z,0
2016-12-04T01:55:40.259Z,0
2016-12-04T01:56:40.272Z,0
2016-12-04T01:57:40.290Z,0
2016-12-04T01:58:40.308Z,0
2016-12-04T01:59:40.316Z,0
2016-12-04T02:00:40.327Z,0
2016-12-04T02:01:40.343Z,0
2016-12-04T02:02:40.356Z,0
2016-12-04T02:03:40.675Z,0
2016-12-04T02:04:40.384Z,0
2016-12-04T02:05:40.396Z,0
2016-12-04T02:06:40.458Z,0
2016-12-04T02:08:40.445Z,0
2016-12-04T02:09:55.373Z,0
2016-12-04T02:10:55.388Z,0
2016-12-04T02:11:40.487Z,0
2016-12-04T02:12:40.503Z,0
2016-12-04T02:14:40.526Z,0
2016-12-04T02:15:40.575Z,0
2016-12-04T02:17:40.574Z,0
2016-12-04T02:18:40.631Z,0
2016-12-04T02:20:40.607Z,0
2016-12-04T02:21:40.627Z,0
2016-12-04T02:22:40.637Z,0
2016-12-04T02:23:40.657Z,0
2016-12-04T02:24:40.668Z,0
2016-12-04T02:25:55.601Z,0
2016-12-04T02:26:40.723Z,0
2016-12-04T02:27:40.710Z,0
2016-12-04T02:28:40.724Z,0
2016-12-04T02:29:40.735Z,0
2016-12-04T02:30:40.743Z,0
2016-12-04T02:31:40.767Z,0
2016-12-04T02:32:55.727Z,0
2016-12-04T02:33:40.800Z,0
2016-12-04T02:34:40.809Z,0
2016-12-04T02:35:40.818Z,0
2016-12-04T02:36:40.836Z,0
2016-12-04T02:38:40.860Z,0
2016-12-04T02:39:40.897Z,0
2016-12-04T02:40:40.891Z,0
2016-12-04T02:41:55.821Z,0
2016-12-04T02:42:40.970Z,0
2016-12-04T02:43:40.932Z,0
2016-12-04T02:44:40.952Z,0
2016-12-04T02:45:55.874Z,0
2016-12-04T02:46:40.972Z,0
2016-12-04T02:47:40.987Z,0
2016-12-04T02:48:40.996Z,0
2016-12-04T02:49:41.010Z,0
2016-12-04T02:50:41.034Z,0
2016-12-04T02:51:41.042Z,0
2016-12-04T02:52:41.106Z,0
2016-12-04T02:53:41.070Z,0
2016-12-04T02:54:41.115Z,0
2016-12-04T02:55:41.097Z,0
2016-12-04T02:56:41.113Z,0
2016-12-04T02:57:56.047Z,0
2016-12-04T02:58:41.136Z,0
2016-12-04T02:59:41.157Z,0
2016-12-04T03:00:41.171Z,0
2016-12-04T03:01:41.194Z,0
2016-12-04T03:02:41.200Z,0
2016-12-04T03:03:41.207Z,0
2016-12-04T03:04:41.230Z,0
2016-12-04T03:05:41.241Z,0
2016-12-04T03:06:41.254Z,0
2016-12-04T03:08:41.340Z,0
2016-12-04T03:09:41.296Z,0
2016-12-04T03:10:41.304Z,0
2016-12-04T03:11:41.334Z,0
2016-12-04T03:12:56.258Z,0
2016-12-04T03:13:41.352Z,0
2016-12-04T03:14:41.364Z,0
2016-12-04T03:15:41.378Z,0
2016-12-04T03:16:41.406Z,0
2016-12-04T03:17:41.410Z,0
2016-12-04T03:19:41.434Z,0
2016-12-04T03:20:41.442Z,0
2016-12-04T03:21:41.453Z,0
2016-12-04T03:22:41.470Z,0
2016-12-04T03:23:41.484Z,0
2016-12-04T03:24:41.505Z,0
2016-12-04T03:25:56.436Z,0
2016-12-04T03:26:41.534Z,0
2016-12-04T03:27:41.541Z,0
2016-12-04T03:28:41.563Z,0
2016-12-04T03:29:41.575Z,0
2016-12-04T03:30:41.584Z,0
2016-12-04T03:31:41.612Z,0
2016-12-04T03:32:41.614Z,0
2016-12-04T03:34:41.646Z,0
2016-12-04T03:35:41.678Z,0
2016-12-04T03:36:41.665Z,0
2016-12-04T03:37:41.682Z,0
2016-12-04T03:38:41.701Z,0
2016-12-04T03:39:41.715Z,0
2016-12-04T03:41:41.762Z,0
2016-12-04T03:42:56.678Z,0
2016-12-04T03:43:56.691Z,0
2016-12-04T03:44:56.727Z,0
2016-12-04T03:45:41.798Z,0
2016-12-04T03:46:41.806Z,0
2016-12-04T03:47:41.819Z,0
2016-12-04T03:49:41.847Z,0
2016-12-04T03:50:41.884Z,0
2016-12-04T03:51:41.881Z,0
2016-12-04T03:52:41.885Z,0
2016-12-04T03:53:41.907Z,0
2016-12-04T03:54:41.915Z,0
2016-12-04T03:55:41.935Z,0
2016-12-04T03:56:56.870Z,0
2016-12-04T03:57:56.886Z,0
2016-12-04T03:58:41.975Z,0
2016-12-04T03:59:41.979Z,0
2016-12-04T04:00:56.926Z,0
2016-12-04T04:01:42.012Z,0
2016-12-04T04:02:42.029Z,0
2016-12-04T04:03:42.045Z,0
2016-12-04T04:04:42.059Z,0
2016-12-04T04:05:42.076Z,0
2016-12-04T04:06:42.084Z,0
2016-12-04T04:07:42.099Z,0
2016-12-04T04:08:42.120Z,0
2016-12-04T04:09:42.132Z,0
2016-12-04T04:10:42.156Z,0
2016-12-04T04:11:42.157Z,0
2016-12-04T04:12:42.169Z,0
2016-12-04T04:13:57.105Z,0
2016-12-04T04:14:42.198Z,0
2016-12-04T04:15:42.211Z,0
2016-12-04T04:16:57.146Z,0
2016-12-04T04:17:42.237Z,0
2016-12-04T04:18:42.256Z,0
2016-12-04T04:19:42.263Z,0
2016-12-04T04:20:42.283Z,0
2016-12-04T04:21:42.293Z,0
2016-12-04T04:22:42.318Z,0
2016-12-04T04:23:42.323Z,0
2016-12-04T04:24:42.341Z,0
2016-12-04T04:25:42.355Z,0
2016-12-04T04:26:42.366Z,0
2016-12-04T04:27:57.302Z,0
2016-12-04T04:28:42.393Z,0
2016-12-04T04:29:42.401Z,0
2016-12-04T04:30:42.417Z,0
2016-12-04T04:31:42.438Z,0
2016-12-04T04:32:57.373Z,0
2016-12-04T04:33:42.465Z,0
2016-12-04T04:34:57.395Z,0
2016-12-04T04:35:42.484Z,0
2016-12-04T04:36:42.503Z,0
2016-12-04T04:37:57.434Z,0
2016-12-04T04:38:42.531Z,0
2016-12-04T04:39:42.542Z,0
2016-12-04T04:40:42.561Z,0
2016-12-04T04:41:42.570Z,0
2016-12-04T04:42:42.589Z,0
2016-12-04T04:43:42.605Z,0
2016-12-04T04:44:42.607Z,0
2016-12-04T04:45:57.555Z,0
2016-12-04T04:46:42.648Z,0
2016-12-04T04:47:57.585Z,0
2016-12-04T04:48:42.668Z,0
2016-12-04T04:49:57.606Z,0
2016-12-04T04:50:42.713Z,0
2016-12-04T04:51:42.709Z,0
2016-12-04T04:52:42.730Z,0
2016-12-04T04:53:42.739Z,0
2016-12-04T04:54:42.758Z,0
2016-12-04T04:55:42.768Z,0
2016-12-04T04:56:42.786Z,0
2016-12-04T04:57:42.845Z,0
2016-12-04T04:58:42.814Z,0
2016-12-04T04:59:42.828Z,0
2016-12-04T05:00:57.765Z,0
2016-12-04T05:01:57.808Z,0
2016-12-04T05:02:42.869Z,0
2016-12-04T05:03:42.881Z,0
2016-12-04T05:04:42.899Z,0
2016-12-04T05:05:42.915Z,0
2016-12-04T05:06:42.949Z,0
2016-12-04T05:07:42.944Z,0
2016-12-04T05:08:42.950Z,0
2016-12-04T05:09:42.968Z,0
2016-12-04T05:10:42.986Z,0
2016-12-04T05:11:42.990Z,0
2016-12-04T05:12:43.037Z,0
2016-12-04T05:13:43.017Z,0
2016-12-04T05:14:43.037Z,0
2016-12-04T05:15:57.973Z,0
2016-12-04T05:16:43.061Z,0
2016-12-04T05:17:43.082Z,0
2016-12-04T05:18:43.094Z,0
2016-12-04T05:19:58.026Z,0
2016-12-04T05:20:58.040Z,0
2016-12-04T05:21:43.156Z,0
2016-12-04T05:22:43.147Z,0
2016-12-04T05:23:43.163Z,0
2016-12-04T05:24:43.175Z,0
2016-12-04T05:25:43.191Z,0
2016-12-04T05:26:43.206Z,0
2016-12-04T05:27:43.214Z,0
2016-12-04T05:28:43.230Z,0
2016-12-04T05:29:43.246Z,0
2016-12-04T05:30:43.261Z,0
2016-12-04T05:31:43.267Z,0
2016-12-04T05:32:58.208Z,0
2016-12-04T05:33:43.296Z,0
2016-12-04T05:34:58.231Z,0
2016-12-04T05:35:58.245Z,0
2016-12-04T05:36:43.346Z,0
2016-12-04T05:37:43.343Z,0
2016-12-04T05:38:43.373Z,0
2016-12-04T05:39:43.374Z,0
2016-12-04T05:40:43.399Z,0
2016-12-04T05:41:43.405Z,0
2016-12-04T05:42:43.419Z,0
2016-12-04T05:43:43.516Z,0
2016-12-04T05:44:43.455Z,0
2016-12-04T05:45:43.467Z,0
2016-12-04T05:46:43.480Z,0
2016-12-04T05:47:43.486Z,0
2016-12-04T05:48:43.504Z,0
2016-12-04T05:49:58.440Z,0
2016-12-04T05:50:43.529Z,0
2016-12-04T05:51:58.458Z,0
2016-12-04T05:52:43.601Z,0
2016-12-04T05:53:43.573Z,0
2016-12-04T05:54:43.587Z,0
2016-12-04T05:55:58.513Z,0
2016-12-04T05:56:43.638Z,0
2016-12-04T05:58:43.658Z,0
2016-12-04T05:59:43.662Z,0
2016-12-04T06:00:43.667Z,0
2016-12-04T06:01:43.679Z,0
2016-12-04T06:02:43.684Z,0
2016-12-04T06:03:43.708Z,0
2016-12-04T06:05:43.788Z,0
2016-12-04T06:06:58.665Z,0
2016-12-04T06:07:58.982Z,0
2016-12-04T06:08:58.688Z,0
2016-12-04T06:09:43.788Z,0
2016-12-04T06:10:43.798Z,0
2016-12-04T06:11:43.814Z,0
2016-12-04T06:12:43.823Z,0
2016-12-04T06:13:43.843Z,0
2016-12-04T06:14:43.851Z,0
2016-12-04T06:15:43.869Z,0
2016-12-04T06:16:43.878Z,0
2016-12-04T06:17:43.889Z,0
2016-12-04T06:18:43.911Z,0
2016-12-04T06:19:43.921Z,0
2016-12-04T06:20:44.243Z,0
2016-12-04T06:21:43.948Z,0
2016-12-04T06:22:58.888Z,0
2016-12-04T06:23:43.974Z,0
2016-12-04T06:24:58.913Z,4
2016-12-04T06:25:58.924Z,4
2016-12-04T06:27:44.035Z,4
2016-12-04T06:28:44.049Z,0
2016-12-04T06:29:44.055Z,4
2016-12-04T06:30:44.121Z,4
2016-12-04T06:31:44.089Z,4
2016-12-04T06:32:44.104Z,4
2016-12-04T06:33:44.124Z,8
2016-12-04T06:34:44.128Z,4
2016-12-04T06:35:44.173Z,8
2016-12-04T06:36:59.083Z,8
2016-12-04T06:37:44.169Z,8
2016-12-04T06:38:59.137Z,12
2016-12-04T06:39:44.203Z,12
2016-12-04T06:40:44.210Z,16
2016-12-04T06:41:44.279Z,16
2016-12-04T06:42:44.284Z,20
2016-12-04T06:43:44.310Z,20
2016-12-04T06:44:44.272Z,20
2016-12-04T06:45:44.293Z,24
2016-12-04T06:46:44.300Z,28
2016-12-04T06:47:44.308Z,32
2016-12-04T06:48:59.253Z,36
2016-12-04T06:49:44.342Z,40
2016-12-04T06:50:44.354Z,44
2016-12-04T06:51:44.366Z,52
2016-12-04T06:52:59.304Z,56
2016-12-04T06:53:44.399Z,60
2016-12-04T06:55:44.429Z,68
2016-12-04T06:56:44.432Z,76
2016-12-04T06:57:44.448Z,80
2016-12-04T06:58:44.463Z,88
2016-12-04T06:59:44.479Z,96
2016-12-04T07:00:44.498Z,108
2016-12-04T07:01:44.512Z,116
2016-12-04T07:02:44.516Z,120
2016-12-04T07:03:44.531Z,132
2016-12-04T07:04:44.544Z,144
2016-12-04T07:05:44.567Z,152
2016-12-04T07:06:44.577Z,164
2016-12-04T07:07:44.608Z,184
2016-12-04T07:08:44.602Z,196
2016-12-04T07:09:44.620Z,208
2016-12-04T07:10:59.553Z,224
2016-12-04T07:11:44.653Z,240
2016-12-04T07:12:44.665Z,252
2016-12-04T07:13:44.675Z,268
2016-12-04T07:14:44.688Z,292
2016-12-04T07:15:44.703Z,308
2016-12-04T07:16:45.020Z,324
2016-12-04T07:17:44.733Z,340
2016-12-04T07:18:44.749Z,356
2016-12-04T07:19:44.759Z,388
2016-12-04T07:20:44.770Z,416
2016-12-04T07:22:44.800Z,444
2016-12-04T07:23:44.842Z,460
2016-12-04T07:24:44.830Z,484
2016-12-04T07:25:59.767Z,496
2016-12-04T07:26:59.778Z,516
2016-12-04T07:27:44.873Z,528
2016-12-04T07:28:44.882Z,552
2016-12-04T07:29:44.900Z,588
2016-12-04T07:30:59.832Z,612
2016-12-04T07:31:44.924Z,632
2016-12-04T07:32:44.949Z,668
2016-12-04T07:33:44.962Z,724
2016-12-04T07:34:44.967Z,772
2016-12-04T07:35:44.979Z,776
2016-12-04T07:36:45.005Z,772
2016-12-04T07:37:45.015Z,812
2016-12-04T07:38:45.029Z,820
2016-12-04T07:40:45.055Z,868
2016-12-04T07:41:45.076Z,904
2016-12-04T07:43:00.006Z,952
2016-12-04T07:44:00.016Z,964
2016-12-04T07:44:45.118Z,996
2016-12-04T07:45:45.146Z,1052
2016-12-04T07:46:45.140Z,1096
2016-12-04T07:47:45.156Z,1096
2016-12-04T07:48:45.176Z,1152
2016-12-04T07:49:45.186Z,1192
2016-12-04T07:50:45.204Z,1256
2016-12-04T07:51:45.210Z,1284
2016-12-04T07:52:45.230Z,1344
2016-12-04T07:53:45.244Z,1352
2016-12-04T07:54:45.554Z,1336
2016-12-04T07:55:45.273Z,1352
2016-12-04T07:56:45.291Z,1468
2016-12-04T07:58:00.223Z,1556
2016-12-04T07:58:45.310Z,1584
2016-12-04T08:00:00.250Z,1600
2016-12-04T08:01:45.362Z,1580
2016-12-04T08:02:45.376Z,1548
2016-12-04T08:04:45.407Z,1532
2016-12-04T08:05:45.414Z,1608
2016-12-04T08:06:45.428Z,1624
2016-12-04T08:07:45.443Z,1668
2016-12-04T08:09:00.391Z,1664
2016-12-04T08:09:45.481Z,1712
2016-12-04T08:11:00.414Z,1736
2016-12-04T08:12:00.431Z,1760
2016-12-04T08:12:45.519Z,1808
2016-12-04T08:13:45.543Z,1996
2016-12-04T08:14:45.552Z,2172
2016-12-04T08:16:45.585Z,2344
2016-12-04T08:17:45.592Z,2328
2016-12-04T08:18:45.614Z,2212
2016-12-04T08:19:45.621Z,2272
2016-12-04T08:20:45.635Z,2200
2016-12-04T08:21:45.647Z,2192
2016-12-04T08:22:45.666Z,2188
2016-12-04T08:23:45.686Z,2248
2016-12-04T08:25:45.715Z,2256
2016-12-04T08:26:45.782Z,2356
2016-12-04T08:27:45.744Z,2292
2016-12-04T08:28:45.786Z,2064
2016-12-04T08:30:00.743Z,2000
2016-12-04T08:30:45.786Z,1948
2016-12-04T08:31:45.807Z,1900
2016-12-04T08:32:45.841Z,1880
2016-12-04T08:33:45.838Z,1828
2016-12-04T08:34:45.853Z,1876
2016-12-04T08:35:45.860Z,1856
2016-12-04T08:36:45.879Z,1912
2016-12-04T08:37:45.891Z,1648
2016-12-04T08:38:45.921Z,1672
2016-12-04T08:39:45.925Z,2132
2016-12-04T08:41:45.946Z,2236
2016-12-04T08:44:00.911Z,2900
2016-12-04T08:46:00.934Z,3064
2016-12-04T08:46:46.037Z,3524
2016-12-04T08:47:46.046Z,3688
2016-12-04T08:48:46.063Z,3456
2016-12-04T08:49:46.073Z,2960
2016-12-04T08:51:46.414Z,2840
2016-12-04T08:52:46.121Z,3164
2016-12-04T08:57:01.154Z,4212
2016-12-04T08:57:46.200Z,4116
2016-12-04T08:58:46.214Z,3596
2016-12-04T09:00:46.240Z,3184
2016-12-04T09:02:46.271Z,3524
2016-12-04T09:03:46.591Z,3764
2016-12-04T09:05:46.371Z,3676
2016-12-04T09:07:46.390Z,3868
2016-12-04T09:08:46.371Z,3848
2016-12-04T09:09:46.382Z,3960
2016-12-04T09:11:46.414Z,4324
2016-12-04T09:13:46.440Z,4216
2016-12-04T09:14:46.447Z,4288
2016-12-04T09:15:46.474Z,4172
2016-12-04T09:16:46.482Z,3900
2016-12-04T09:18:01.424Z,3952
2016-12-04T09:18:46.820Z,4140
2016-12-04T09:19:46.534Z,4316
2016-12-04T09:20:46.548Z,4468
2016-12-04T09:21:46.564Z,3900
2016-12-04T09:22:46.580Z,3528
2016-12-04T09:23:46.603Z,3104
2016-12-04T09:24:46.617Z,3016
2016-12-04T09:25:46.630Z,3052
2016-12-04T09:26:46.645Z,3144
2016-12-04T09:28:01.587Z,3152
2016-12-04T09:28:46.677Z,3276
2016-12-04T09:29:46.688Z,2952
2016-12-04T09:30:46.738Z,2728
2016-12-04T09:31:46.719Z,2832
2016-12-04T09:33:01.664Z,3000
2016-12-04T09:33:46.764Z,3108
2016-12-04T09:34:46.772Z,3144
2016-12-04T09:36:01.704Z,3536
2016-12-04T09:36:46.805Z,3540
2016-12-04T09:37:46.813Z,3732
2016-12-04T09:38:46.834Z,3624
2016-12-04T09:39:46.856Z,3876
2016-12-04T09:40:47.175Z,3800
2016-12-04T09:41:46.877Z,3540
2016-12-04T09:43:01.872Z,3576
2016-12-04T09:43:46.914Z,3540
2016-12-04T09:44:46.936Z,3616
2016-12-04T09:45:46.942Z,3512
2016-12-04T09:46:46.955Z,3628
2016-12-04T09:47:47.005Z,3620
2016-12-04T09:48:46.993Z,3344
2016-12-04T09:49:47.005Z,3372
2016-12-04T09:50:47.025Z,3000
2016-12-04T09:51:47.037Z,3032
2016-12-04T09:52:47.056Z,3008
2016-12-04T09:53:47.074Z,2988
2016-12-04T09:54:47.086Z,2924
2016-12-04T09:55:47.106Z,2948
2016-12-04T09:56:47.140Z,2992
2016-12-04T09:57:47.452Z,2884
2016-12-04T09:58:47.447Z,2960
2016-12-04T10:00:02.097Z,2916
2016-12-04T10:00:47.189Z,2900
2016-12-04T10:01:47.198Z,2828
2016-12-04T10:02:47.219Z,2904
2016-12-04T10:03:47.233Z,2908
2016-12-04T10:05:02.167Z,2720
2016-12-04T10:06:02.185Z,2640
2016-12-04T10:06:47.277Z,2576
2016-12-04T10:07:47.319Z,2632
2016-12-04T10:08:47.309Z,2764
2016-12-04T10:09:47.337Z,2864
2016-12-04T10:10:47.340Z,2912
2016-12-04T10:11:47.357Z,2896
2016-12-04T10:12:47.383Z,2872
2016-12-04T10:13:47.394Z,2652
2016-12-04T10:15:47.428Z,3196
2016-12-04T10:16:47.442Z,3120
2016-12-04T10:17:47.453Z,3380
2016-12-04T10:18:47.475Z,3512
2016-12-04T10:19:47.490Z,3556
2016-12-04T10:21:02.426Z,3524
2016-12-04T10:21:47.524Z,3456
2016-12-04T10:23:02.453Z,3444
2016-12-04T10:23:47.552Z,3408
2016-12-04T10:24:47.563Z,3592
2016-12-04T10:26:47.599Z,3432
2016-12-04T10:28:47.639Z,2864
2016-12-04T10:29:47.680Z,2780
2016-12-04T10:30:47.661Z,2612
2016-12-04T10:31:47.679Z,2492
2016-12-04T10:32:47.693Z,2468
2016-12-04T10:33:47.709Z,2552
2016-12-04T10:34:48.036Z,2700
2016-12-04T10:35:47.745Z,2680
2016-12-04T10:37:02.683Z,2760
2016-12-04T10:37:47.781Z,2832
2016-12-04T10:38:47.793Z,2628
2016-12-04T10:39:47.812Z,2604
2016-12-04T10:40:47.885Z,2684
2016-12-04T10:41:47.842Z,2792
2016-12-04T10:42:47.857Z,2804
2016-12-04T10:43:47.876Z,2720
2016-12-04T10:44:47.888Z,2512
2016-12-04T10:45:47.913Z,2492
2016-12-04T10:46:47.923Z,2748
2016-12-04T10:47:47.941Z,2876
2016-12-04T10:48:47.956Z,2948
2016-12-04T10:50:02.895Z,3212
2016-12-04T10:50:47.985Z,3292
2016-12-04T10:51:48.010Z,3440
2016-12-04T10:53:48.037Z,3396
2016-12-04T10:54:48.057Z,3168
2016-12-04T10:55:48.080Z,3240
2016-12-04T10:57:48.100Z,3520
2016-12-04T10:58:48.162Z,3316
2016-12-04T10:59:48.137Z,3148
2016-12-04T11:00:48.140Z,2996
2016-12-04T11:01:48.474Z,3148
2016-12-04T11:02:48.480Z,3236
2016-12-04T11:03:48.497Z,3216
2016-12-04T11:04:48.215Z,3064
2016-12-04T11:05:48.229Z,3132
2016-12-04T11:06:48.245Z,3048
2016-12-04T11:08:03.192Z,2880
2016-12-04T11:08:48.282Z,2752
2016-12-04T11:09:48.293Z,2672
2016-12-04T11:10:48.644Z,2716
2016-12-04T11:11:48.376Z,2812
2016-12-04T11:12:48.341Z,2968
2016-12-04T11:13:48.358Z,3000
2016-12-04T11:14:48.381Z,2976
2016-12-04T11:15:48.402Z,2860
2016-12-04T11:16:48.414Z,2744
2016-12-04T11:17:48.429Z,2932
2016-12-04T11:18:48.448Z,3056
2016-12-04T11:19:48.457Z,3052
2016-12-04T11:20:48.501Z,3196
2016-12-04T11:21:48.486Z,3540
2016-12-04T11:23:48.521Z,3864
2016-12-04T11:25:03.459Z,4044
2016-12-04T11:25:48.555Z,4144
2016-12-04T11:26:48.572Z,3816
2016-12-04T11:27:48.588Z,3580
2016-12-04T11:28:48.661Z,3584
2016-12-04T11:29:48.659Z,3332
2016-12-04T11:30:48.641Z,3488
2016-12-04T11:31:48.648Z,3756
2016-12-04T11:32:48.676Z,3656
2016-12-04T11:34:48.706Z,3428
2016-12-04T11:36:03.647Z,2968
2016-12-04T11:36:48.742Z,3028
2016-12-04T11:37:48.750Z,3060
2016-12-04T11:38:48.775Z,3088
2016-12-04T11:40:03.716Z,3300
2016-12-04T11:40:48.807Z,3472
2016-12-04T11:41:48.823Z,3388
2016-12-04T11:42:48.835Z,3408
2016-12-04T11:43:48.854Z,3508
2016-12-04T11:45:03.795Z,3728
2016-12-04T11:45:48.899Z,3736
2016-12-04T11:46:48.900Z,3868
2016-12-04T11:47:49.225Z,3712
2016-12-04T11:48:48.938Z,3576
2016-12-04T11:49:48.957Z,3700
2016-12-04T11:50:48.967Z,3612
2016-12-04T11:51:48.989Z,3560
2016-12-04T11:52:49.004Z,3564
2016-12-04T11:53:49.026Z,3456
2016-12-04T11:54:49.087Z,3340
2016-12-04T11:56:03.979Z,3328
2016-12-04T11:56:49.073Z,3220
2016-12-04T11:57:49.088Z,3060
2016-12-04T11:58:49.108Z,3004
2016-12-04T11:59:49.121Z,2992
2016-12-04T12:00:49.141Z,2980
2016-12-04T12:01:49.155Z,3080
2016-12-04T12:03:49.489Z,3344
2016-12-04T12:04:49.265Z,3356
2016-12-04T12:05:49.217Z,3364
2016-12-04T12:07:04.167Z,3260
2016-12-04T12:07:49.263Z,3284
2016-12-04T12:08:49.275Z,3368
2016-12-04T12:10:04.212Z,3456
2016-12-04T12:10:49.308Z,3280
2016-12-04T12:12:04.244Z,2964
2016-12-04T12:13:04.258Z,3064
2016-12-04T12:13:49.365Z,3280
2016-12-04T12:14:49.381Z,3216
2016-12-04T12:15:49.385Z,3148
2016-12-04T12:16:49.410Z,3152
2016-12-04T12:17:49.426Z,3140
2016-12-04T12:18:49.435Z,3212
2016-12-04T12:19:49.457Z,3268
2016-12-04T12:20:49.476Z,3240
2016-12-04T12:21:49.526Z,3168
2016-12-04T12:22:49.506Z,2940
2016-12-04T12:24:04.449Z,2612
2016-12-04T12:25:04.464Z,2504
2016-12-04T12:25:49.565Z,2408
2016-12-04T12:26:49.571Z,2440
2016-12-04T12:28:04.509Z,2428
2016-12-04T12:29:04.527Z,2376
2016-12-04T12:29:49.618Z,2288
2016-12-04T12:30:49.624Z,2180
2016-12-04T12:32:49.717Z,2076
2016-12-04T12:33:49.685Z,2048
2016-12-04T12:34:49.704Z,2044
2016-12-04T12:36:49.747Z,2016
2016-12-04T12:37:49.754Z,1856
2016-12-04T12:38:49.772Z,1700
2016-12-04T12:39:49.785Z,1532
2016-12-04T12:40:49.805Z,1500
2016-12-04T12:41:49.826Z,1524
2016-12-04T12:43:04.766Z,1532
2016-12-04T12:43:49.855Z,1472
2016-12-04T12:44:49.872Z,1460
2016-12-04T12:45:49.889Z,1472
2016-12-04T12:46:49.909Z,1472
2016-12-04T12:47:49.920Z,1432
2016-12-04T12:48:49.937Z,1404
2016-12-04T12:49:49.962Z,1372
2016-12-04T12:50:49.981Z,1376
2016-12-04T12:51:49.994Z,1492
2016-12-04T12:52:50.004Z,1528
2016-12-04T12:53:50.023Z,1544
2016-12-04T12:54:50.041Z,1520
2016-12-04T12:56:04.980Z,1480
2016-12-04T12:57:05.000Z,1400
2016-12-04T12:57:50.097Z,1356
2016-12-04T12:59:05.028Z,1404
2016-12-04T12:59:50.142Z,1452
2016-12-04T13:01:50.157Z,1404
2016-12-04T13:02:50.162Z,1452
2016-12-04T13:03:50.196Z,1544
2016-12-04T13:04:50.213Z,1592
2016-12-04T13:05:50.221Z,1536
2016-12-04T13:06:50.244Z,1416
2016-12-04T13:07:50.252Z,1352
2016-12-04T13:08:50.269Z,1428
2016-12-04T13:09:50.291Z,1444
2016-12-04T13:10:50.603Z,1504
2016-12-04T13:13:50.346Z,1520
2016-12-04T13:15:05.296Z,1500
2016-12-04T13:15:50.384Z,1496
2016-12-04T13:16:50.400Z,1336
2016-12-04T13:17:50.417Z,1320
2016-12-04T13:18:50.433Z,1332
2016-12-04T13:19:50.446Z,1312
2016-12-04T13:20:50.472Z,1240
2016-12-04T13:21:50.476Z,1172
2016-12-04T13:22:50.495Z,1160
2016-12-04T13:23:50.511Z,1144
2016-12-04T13:24:50.523Z,1104
2016-12-04T13:26:05.474Z,1076
2016-12-04T13:26:50.570Z,1060
2016-12-04T13:27:50.576Z,1072
2016-12-04T13:28:50.626Z,1108
2016-12-04T13:30:05.534Z,1168
2016-12-04T13:31:05.551Z,1212
2016-12-04T13:31:50.676Z,1176
2016-12-04T13:32:50.665Z,1168
2016-12-04T13:33:50.676Z,1160
2016-12-04T13:34:50.705Z,1100
2016-12-04T13:35:50.708Z,1084
2016-12-04T13:36:51.037Z,1072
2016-12-04T13:37:50.742Z,1104
2016-12-04T13:38:50.765Z,1104
2016-12-04T13:39:50.798Z,1104
2016-12-04T13:40:50.794Z,1144
2016-12-04T13:41:50.911Z,1184
2016-12-04T13:43:05.750Z,1144
2016-12-04T13:43:50.832Z,1072
2016-12-04T13:44:50.873Z,1036
2016-12-04T13:45:50.874Z,1060
2016-12-04T13:47:05.814Z,1124
2016-12-04T13:47:50.899Z,1120
2016-12-04T13:48:50.926Z,1096
2016-12-04T13:50:50.959Z,1008
2016-12-04T13:51:50.974Z,948
2016-12-04T13:52:50.986Z,936
2016-12-04T13:53:51.007Z,888
2016-12-04T13:54:51.023Z,872
2016-12-04T13:55:51.036Z,900
2016-12-04T13:56:51.049Z,856
2016-12-04T13:57:51.074Z,836
2016-12-04T13:58:51.092Z,824
2016-12-04T13:59:51.108Z,808
2016-12-04T14:00:51.126Z,776
2016-12-04T14:01:51.132Z,772
2016-12-04T14:03:06.082Z,744
2016-12-04T14:04:06.084Z,752
2016-12-04T14:04:51.488Z,756
2016-12-04T14:05:51.199Z,744
2016-12-04T14:06:51.218Z,732
2016-12-04T14:07:51.234Z,724
2016-12-04T14:08:51.250Z,720
2016-12-04T14:09:51.270Z,696
2016-12-04T14:11:51.305Z,660
2016-12-04T14:12:51.329Z,648
2016-12-04T14:13:51.332Z,612
2016-12-04T14:14:51.346Z,600
2016-12-04T14:15:51.364Z,592
2016-12-04T14:16:51.382Z,588
2016-12-04T14:18:06.318Z,588
2016-12-04T14:19:06.381Z,576
2016-12-04T14:19:51.426Z,564
2016-12-04T14:20:51.445Z,536
2016-12-04T14:21:51.456Z,488
2016-12-04T14:22:51.482Z,472
2016-12-04T14:23:51.552Z,460
2016-12-04T14:24:51.509Z,452
2016-12-04T14:25:51.525Z,424
2016-12-04T14:26:51.538Z,404
2016-12-04T14:27:51.554Z,396
2016-12-04T14:28:51.578Z,384
2016-12-04T14:30:06.519Z,364
2016-12-04T14:30:51.609Z,352
2016-12-04T14:31:51.621Z,332
2016-12-04T14:32:51.635Z,316
2016-12-04T14:33:51.708Z,308
2016-12-04T14:35:06.593Z,292
2016-12-04T14:35:51.689Z,280
2016-12-04T14:36:51.707Z,260
2016-12-04T14:37:51.719Z,240
2016-12-04T14:38:51.740Z,228
2016-12-04T14:39:51.753Z,216
2016-12-04T14:40:51.772Z,208
2016-12-04T14:41:51.788Z,196
2016-12-04T14:42:51.802Z,180
2016-12-04T14:43:51.871Z,164
2016-12-04T14:44:51.837Z,148
2016-12-04T14:45:51.854Z,140
2016-12-04T14:47:06.792Z,124
2016-12-04T14:47:51.879Z,120
2016-12-04T14:49:06.823Z,108
2016-12-04T14:50:06.843Z,100
2016-12-04T14:51:06.848Z,88
2016-12-04T14:51:51.949Z,88
2016-12-04T14:53:06.882Z,80
2016-12-04T14:53:51.981Z,80
2016-12-04T14:54:51.996Z,72
2016-12-04T14:55:52.007Z,68